Time;durP1;ratioP1;P1;durP2;ratioP2;P2;SDS_P1;SDS_P2;PMS_P1;PMS_P2;Temp;Humidity;BMP_temperature;BMP_pressure;BME280_temperature;BME280_humidity;BME280_pressure;Samples;Min_cycle;Max_cycle;Signal;HPM_P1;HPM_P2
2024/01/31 00:01:35;;;;;;;7.00;1.83;;;;;;;;;;4941694;28;20022;-74
2024/01/31 00:04:01;;;;;;;15.60;2.03;;;;;;;;;;4937434;28;20028;-74
2024/01/31 00:06:27;;;;;;;9.30;1.33;;;;;;;;;;4942527;29;20040;-74
2024/01/31 00:08:55;;;;;;;11.05;1.63;;;;;;;;;;4933141;28;20027;-75
2024/01/31 00:11:21;;;;;;;10.15;1.35;;;;;;;;;;4941037;29;20067;-74
2024/01/31 00:13:47;;;;;;;8.32;1.25;;;;;;;;;;4924782;29;20363;-74
2024/01/31 00:16:14;;;;;;;10.48;0.95;;;;;;;;;;4945013;28;20031;-75
2024/01/31 00:18:40;;;;;;;7.53;1.30;;;;;;;;;;4932876;29;20492;-74
2024/01/31 00:21:06;;;;;;;13.65;1.15;;;;;;;;;;4945737;28;20104;-74
2024/01/31 00:23:32;;;;;;;7.72;1.42;;;;;;;;;;4936600;29;20038;-74
2024/01/31 00:25:58;;;;;;;7.75;1.38;;;;;;;;;;4942810;28;20046;-73
2024/01/31 00:28:24;;;;;;;6.30;1.45;;;;;;;;;;4943261;28;20035;-75
2024/01/31 00:30:51;;;;;;;10.13;1.10;;;;;;;;;;4947206;28;20146;-74
2024/01/31 00:33:17;;;;;;;4.47;0.98;;;;;;;;;;4945774;28;20031;-74
2024/01/31 00:35:43;;;;;;;7.32;1.13;;;;;;;;;;4945395;29;20028;-74
2024/01/31 00:38:09;;;;;;;7.10;1.13;;;;;;;;;;4942618;29;20708;-75
2024/01/31 00:40:35;;;;;;;10.15;1.35;;;;;;;;;;4949391;28;20473;-75
2024/01/31 00:43:01;;;;;;;7.70;1.05;;;;;;;;;;4940771;29;20040;-75
2024/01/31 00:45:28;;;;;;;9.07;1.35;;;;;;;;;;4948937;29;20126;-74
2024/01/31 00:47:54;;;;;;;7.25;1.70;;;;;;;;;;4939321;29;20034;-74
2024/01/31 00:50:21;;;;;;;11.70;1.02;;;;;;;;;;4948100;28;20035;-75
2024/01/31 00:52:47;;;;;;;16.95;1.92;;;;;;;;;;4937416;29;20036;-74
2024/01/31 00:55:13;;;;;;;6.78;1.85;;;;;;;;;;4944920;28;20090;-74
2024/01/31 00:57:39;;;;;;;7.90;1.33;;;;;;;;;;4932479;29;20036;-74
2024/01/31 01:00:08;;;;;;;16.20;1.67;;;;;;;;;;4939133;28;20043;-75
2024/01/31 01:02:36;;;;;;;10.75;1.52;;;;;;;;;;4945702;28;20123;-74
2024/01/31 01:05:03;;;;;;;8.18;2.05;;;;;;;;;;4935672;29;20027;-74
2024/01/31 01:07:29;;;;;;;7.63;1.33;;;;;;;;;;4938657;29;20063;-74
2024/01/31 01:09:55;;;;;;;9.50;1.38;;;;;;;;;;4940551;28;20024;-76
2024/01/31 01:12:21;;;;;;;7.70;1.25;;;;;;;;;;4943614;29;20058;-75
2024/01/31 01:14:47;;;;;;;10.63;1.30;;;;;;;;;;4940169;29;20044;-75
2024/01/31 01:17:13;;;;;;;5.72;0.93;;;;;;;;;;4938608;28;20027;-75
2024/01/31 01:19:39;;;;;;;8.18;1.10;;;;;;;;;;4942422;28;20548;-75
2024/01/31 01:22:06;;;;;;;8.02;0.75;;;;;;;;;;4943675;29;20044;-75
2024/01/31 01:24:32;;;;;;;9.43;1.48;;;;;;;;;;4938631;28;20038;-74
2024/01/31 01:26:58;;;;;;;9.15;1.30;;;;;;;;;;4944684;29;20023;-74
2024/01/31 01:29:24;;;;;;;7.00;1.20;;;;;;;;;;4931669;29;20031;-74
2024/01/31 01:31:50;;;;;;;8.55;1.52;;;;;;;;;;4947856;29;20031;-74
2024/01/31 01:34:16;;;;;;;9.93;1.23;;;;;;;;;;4947056;29;20031;-74
2024/01/31 01:36:42;;;;;;;4.60;0.88;;;;;;;;;;4935168;28;20039;-74
2024/01/31 01:39:08;;;;;;;7.53;0.60;;;;;;;;;;4940075;29;20043;-75
2024/01/31 01:41:34;;;;;;;7.03;1.05;;;;;;;;;;4935808;29;20043;-74
2024/01/31 01:44:00;;;;;;;3.88;0.70;;;;;;;;;;4949066;29;20031;-74
2024/01/31 01:46:26;;;;;;;12.27;1.42;;;;;;;;;;4947665;29;20845;-74
2024/01/31 01:48:52;;;;;;;4.20;0.70;;;;;;;;;;4951403;29;20039;-75
2024/01/31 01:51:20;;;;;;;6.90;0.90;;;;;;;;;;4949744;29;20039;-75
2024/01/31 01:53:46;;;;;;;11.18;0.90;;;;;;;;;;4936286;29;20062;-74
2024/01/31 01:56:14;;;;;;;6.85;0.88;;;;;;;;;;4946117;28;20433;-74
2024/01/31 01:58:41;;;;;;;6.95;0.80;;;;;;;;;;4934313;29;20043;-74
2024/01/31 02:01:08;;;;;;;5.00;0.52;;;;;;;;;;4934754;29;20072;-76
2024/01/31 02:03:35;;;;;;;9.32;1.02;;;;;;;;;;4943588;29;20027;-75
2024/01/31 02:06:01;;;;;;;8.45;0.85;;;;;;;;;;4937353;29;20023;-75
2024/01/31 02:08:28;;;;;;;9.27;2.78;;;;;;;;;;4930310;29;20211;-75
2024/01/31 02:10:54;;;;;;;6.97;1.30;;;;;;;;;;4938063;29;20043;-75
2024/01/31 02:13:20;;;;;;;9.88;0.98;;;;;;;;;;4938583;29;20042;-75
2024/01/31 02:15:58;;;;;;;14.35;0.93;;;;;;;;;;4944669;28;20044;-74
2024/01/31 02:18:25;;;;;;;9.48;1.00;;;;;;;;;;4942814;29;20059;-74
2024/01/31 02:20:51;;;;;;;8.27;0.98;;;;;;;;;;4951486;29;20035;-74
2024/01/31 02:23:17;;;;;;;6.88;0.90;;;;;;;;;;4942334;29;20027;-73
2024/01/31 02:25:43;;;;;;;8.45;1.63;;;;;;;;;;4942728;29;20050;-74
2024/01/31 02:28:09;;;;;;;6.53;0.70;;;;;;;;;;4937567;29;20035;-73
2024/01/31 02:30:35;;;;;;;4.95;1.08;;;;;;;;;;4951691;29;20089;-73
2024/01/31 02:33:01;;;;;;;8.20;1.35;;;;;;;;;;4950860;29;20131;-74
2024/01/31 02:35:28;;;;;;;10.38;0.95;;;;;;;;;;4949765;28;20027;-74
2024/01/31 02:37:54;;;;;;;7.75;0.90;;;;;;;;;;4942582;29;20469;-74
2024/01/31 02:40:21;;;;;;;5.95;0.80;;;;;;;;;;4938483;29;20032;-74
2024/01/31 02:42:48;;;;;;;7.95;0.93;;;;;;;;;;4948512;29;20097;-75
2024/01/31 02:45:14;;;;;;;5.55;0.90;;;;;;;;;;4951016;29;20019;-74
2024/01/31 02:47:40;;;;;;;4.25;0.68;;;;;;;;;;4944634;29;20047;-73
2024/01/31 02:50:06;;;;;;;9.32;2.35;;;;;;;;;;4932170;29;20028;-73
2024/01/31 02:52:32;;;;;;;6.00;0.80;;;;;;;;;;4933079;29;20046;-75
2024/01/31 02:54:58;;;;;;;8.82;0.73;;;;;;;;;;4933438;29;20055;-74
2024/01/31 02:57:24;;;;;;;4.68;0.52;;;;;;;;;;4938242;29;20057;-75
2024/01/31 02:59:51;;;;;;;9.10;0.52;;;;;;;;;;4941046;29;20035;-74
2024/01/31 03:02:17;;;;;;;5.28;1.02;;;;;;;;;;4946737;29;20039;-74
2024/01/31 03:04:44;;;;;;;3.33;0.52;;;;;;;;;;4940393;29;20118;-74
2024/01/31 03:07:10;;;;;;;7.43;0.52;;;;;;;;;;4944301;29;20117;-74
2024/01/31 03:09:36;;;;;;;1.70;0.40;;;;;;;;;;4944931;29;20032;-74
2024/01/31 03:12:04;;;;;;;3.33;0.63;;;;;;;;;;4945935;29;20086;-75
2024/01/31 03:14:30;;;;;;;3.70;0.80;;;;;;;;;;4942778;29;20027;-75
2024/01/31 03:16:56;;;;;;;1.50;0.20;;;;;;;;;;4945451;29;20035;-74
2024/01/31 03:19:22;;;;;;;1.95;0.30;;;;;;;;;;4935393;29;20142;-76
2024/01/31 03:21:49;;;;;;;3.35;0.30;;;;;;;;;;4946538;29;20035;-74
2024/01/31 03:24:15;;;;;;;4.82;0.60;;;;;;;;;;4934582;29;20058;-74
2024/01/31 03:26:41;;;;;;;4.30;0.52;;;;;;;;;;4951813;28;20090;-74
2024/01/31 03:29:08;;;;;;;3.92;0.57;;;;;;;;;;4933742;29;20031;-74
2024/01/31 03:31:34;;;;;;;3.90;0.55;;;;;;;;;;4944106;29;20031;-74
2024/01/31 03:34:00;;;;;;;2.53;0.45;;;;;;;;;;4939086;29;20043;-75
2024/01/31 03:36:26;;;;;;;2.60;0.30;;;;;;;;;;4931793;29;20095;-74
2024/01/31 03:38:54;;;;;;;2.72;0.38;;;;;;;;;;4935457;29;20551;-76
2024/01/31 03:41:20;;;;;;;3.30;0.40;;;;;;;;;;4944779;29;20473;-74
2024/01/31 03:43:46;;;;;;;4.30;0.40;;;;;;;;;;4943681;29;20047;-75
2024/01/31 03:46:12;;;;;;;2.22;0.30;;;;;;;;;;4938763;29;20031;-74
2024/01/31 03:48:38;;;;;;;1.88;0.30;;;;;;;;;;4938730;29;20043;-74
2024/01/31 03:51:04;;;;;;;3.42;0.50;;;;;;;;;;4942392;29;20794;-74
2024/01/31 03:53:30;;;;;;;2.38;0.47;;;;;;;;;;4948156;29;20035;-74
2024/01/31 03:55:56;;;;;;;3.13;1.48;;;;;;;;;;4930350;29;20043;-74
2024/01/31 03:58:22;;;;;;;3.13;0.70;;;;;;;;;;4933025;29;20042;-74
2024/01/31 04:00:49;;;;;;;4.78;1.00;;;;;;;;;;4948789;29;20035;-75
2024/01/31 04:03:20;;;;;;;7.97;0.70;;;;;;;;;;4938444;29;20454;-75
2024/01/31 04:05:46;;;;;;;9.93;1.27;;;;;;;;;;4939346;29;20134;-74
2024/01/31 04:08:12;;;;;;;5.15;0.57;;;;;;;;;;4949971;29;20038;-74
2024/01/31 04:10:38;;;;;;;7.38;1.00;;;;;;;;;;4948929;29;20689;-74
2024/01/31 04:13:04;;;;;;;14.48;0.90;;;;;;;;;;4948966;29;20532;-74
2024/01/31 04:15:30;;;;;;;4.80;0.90;;;;;;;;;;4938809;28;20123;-74
2024/01/31 04:17:57;;;;;;;6.32;0.65;;;;;;;;;;4936554;29;20165;-75
2024/01/31 04:20:24;;;;;;;7.60;1.55;;;;;;;;;;4945094;29;20035;-74
2024/01/31 04:22:50;;;;;;;1.70;0.45;;;;;;;;;;4950518;29;20460;-74
2024/01/31 04:25:16;;;;;;;7.60;0.88;;;;;;;;;;4934695;29;20054;-75
2024/01/31 04:27:42;;;;;;;4.07;1.02;;;;;;;;;;4940385;29;20035;-74
2024/01/31 04:30:09;;;;;;;6.22;0.70;;;;;;;;;;4943884;29;20377;-74
2024/01/31 04:32:35;;;;;;;6.20;1.13;;;;;;;;;;4931334;29;20042;-73
2024/01/31 04:35:01;;;;;;;3.88;0.80;;;;;;;;;;4931840;29;20079;-74
2024/01/31 04:37:27;;;;;;;4.35;1.10;;;;;;;;;;4943891;28;20032;-74
2024/01/31 04:39:53;;;;;;;7.15;0.88;;;;;;;;;;4944272;29;20023;-74
2024/01/31 04:42:20;;;;;;;13.52;1.20;;;;;;;;;;4930342;29;20053;-75
2024/01/31 04:44:46;;;;;;;4.70;1.00;;;;;;;;;;4933469;29;20126;-74
2024/01/31 04:47:13;;;;;;;5.43;1.17;;;;;;;;;;4941824;28;20067;-74
2024/01/31 04:49:40;;;;;;;6.78;1.00;;;;;;;;;;4934609;29;20046;-74
2024/01/31 04:52:06;;;;;;;7.50;0.75;;;;;;;;;;4938421;29;20028;-73
2024/01/31 04:54:32;;;;;;;6.80;0.75;;;;;;;;;;4940383;29;20042;-75
2024/01/31 04:56:58;;;;;;;4.35;0.82;;;;;;;;;;4940422;29;20438;-74
2024/01/31 04:59:24;;;;;;;11.63;1.42;;;;;;;;;;4944340;28;20033;-74
2024/01/31 05:01:51;;;;;;;6.88;0.80;;;;;;;;;;4945978;29;20032;-74
2024/01/31 05:04:17;;;;;;;8.10;0.70;;;;;;;;;;4948192;29;20039;-73
2024/01/31 05:06:43;;;;;;;3.90;0.93;;;;;;;;;;4948831;29;20482;-74
2024/01/31 05:09:09;;;;;;;10.07;1.17;;;;;;;;;;4949641;28;20046;-73
2024/01/31 05:11:35;;;;;;;7.95;1.13;;;;;;;;;;4947018;29;20118;-73
2024/01/31 05:14:01;;;;;;;5.20;1.27;;;;;;;;;;4944570;29;20425;-77
2024/01/31 05:16:27;;;;;;;10.85;2.00;;;;;;;;;;4946743;29;20036;-75
2024/01/31 05:18:53;;;;;;;10.73;1.30;;;;;;;;;;4937309;29;20032;-74
2024/01/31 05:21:19;;;;;;;3.78;0.80;;;;;;;;;;4940237;28;20056;-74
2024/01/31 05:23:45;;;;;;;12.57;1.77;;;;;;;;;;4940488;29;20035;-74
2024/01/31 05:26:11;;;;;;;23.88;6.47;;;;;;;;;;4949646;29;20024;-75
2024/01/31 05:28:38;;;;;;;10.85;1.50;;;;;;;;;;4951107;29;20523;-75
2024/01/31 05:31:04;;;;;;;9.32;1.38;;;;;;;;;;4951135;29;20125;-75
2024/01/31 05:33:30;;;;;;;12.52;1.73;;;;;;;;;;4938403;28;20028;-77
2024/01/31 05:35:58;;;;;;;7.78;1.20;;;;;;;;;;4938568;29;20019;-76
2024/01/31 05:38:24;;;;;;;9.40;1.00;;;;;;;;;;4942394;29;20493;-75
2024/01/31 05:40:50;;;;;;;13.77;2.05;;;;;;;;;;4938135;29;20036;-76
2024/01/31 05:43:18;;;;;;;7.63;1.70;;;;;;;;;;4943810;29;20047;-76
2024/01/31 05:45:44;;;;;;;12.73;1.35;;;;;;;;;;4946447;29;20042;-75
2024/01/31 05:48:10;;;;;;;12.25;1.50;;;;;;;;;;4938522;29;20035;-75
2024/01/31 05:50:36;;;;;;;2.95;0.82;;;;;;;;;;4927243;29;20047;-76
2024/01/31 05:53:02;;;;;;;17.75;4.72;;;;;;;;;;4945945;29;20048;-73
2024/01/31 05:55:28;;;;;;;8.57;2.22;;;;;;;;;;4949525;29;20114;-73
2024/01/31 05:57:54;;;;;;;10.52;1.40;;;;;;;;;;4942694;29;20067;-75
2024/01/31 06:00:20;;;;;;;8.18;1.98;;;;;;;;;;4948499;29;20039;-76
2024/01/31 06:02:46;;;;;;;13.65;1.55;;;;;;;;;;4949033;29;20059;-76
2024/01/31 06:05:13;;;;;;;9.43;1.98;;;;;;;;;;4951430;28;20035;-74
2024/01/31 06:07:39;;;;;;;12.30;2.97;;;;;;;;;;4929949;29;20031;-75
2024/01/31 06:10:05;;;;;;;14.05;4.10;;;;;;;;;;4946272;28;20031;-74
2024/01/31 06:12:31;;;;;;;10.40;2.47;;;;;;;;;;4944794;29;20043;-74
2024/01/31 06:14:57;;;;;;;12.65;2.53;;;;;;;;;;4944468;29;20031;-73
2024/01/31 06:17:23;;;;;;;12.45;1.85;;;;;;;;;;4934792;29;20039;-74
2024/01/31 06:19:49;;;;;;;9.65;2.42;;;;;;;;;;4941257;29;20111;-74
2024/01/31 06:22:15;;;;;;;13.32;4.68;;;;;;;;;;4937794;29;20064;-74
2024/01/31 06:24:41;;;;;;;17.08;6.15;;;;;;;;;;4941755;29;20152;-74
2024/01/31 06:27:08;;;;;;;10.60;4.05;;;;;;;;;;4922522;29;20066;-73
2024/01/31 06:29:34;;;;;;;7.65;1.92;;;;;;;;;;4945174;29;20795;-75
2024/01/31 06:32:00;;;;;;;6.75;1.58;;;;;;;;;;4949071;29;20061;-74
2024/01/31 06:34:26;;;;;;;7.85;2.22;;;;;;;;;;4939907;29;20036;-74
2024/01/31 06:36:53;;;;;;;14.80;1.65;;;;;;;;;;4939968;28;20032;-75
2024/01/31 06:39:19;;;;;;;10.88;1.80;;;;;;;;;;4941858;29;20115;-74
2024/01/31 06:41:45;;;;;;;7.43;1.92;;;;;;;;;;4947022;29;20174;-74
2024/01/31 06:44:11;;;;;;;7.53;1.67;;;;;;;;;;4951712;29;20028;-74
2024/01/31 06:46:38;;;;;;;9.75;1.58;;;;;;;;;;4944610;29;20549;-74
2024/01/31 06:49:04;;;;;;;7.88;2.17;;;;;;;;;;4944175;28;20056;-74
2024/01/31 06:51:31;;;;;;;8.93;1.85;;;;;;;;;;4932194;29;20516;-74
2024/01/31 06:53:59;;;;;;;7.38;1.60;;;;;;;;;;4945880;29;20406;-74
2024/01/31 06:56:25;;;;;;;10.50;1.65;;;;;;;;;;4942756;29;20031;-74
2024/01/31 06:58:51;;;;;;;9.43;1.83;;;;;;;;;;4947707;28;20019;-74
2024/01/31 07:01:18;;;;;;;8.68;1.55;;;;;;;;;;4948895;29;20122;-75
2024/01/31 07:03:47;;;;;;;7.70;1.20;;;;;;;;;;4951508;29;20023;-74
2024/01/31 07:06:13;;;;;;;5.43;1.67;;;;;;;;;;4915362;29;20394;-74
2024/01/31 07:08:39;;;;;;;8.15;1.38;;;;;;;;;;4931996;29;20401;-75
2024/01/31 07:11:07;;;;;;;7.90;1.58;;;;;;;;;;4945546;28;20484;-74
2024/01/31 07:13:33;;;;;;;7.00;1.45;;;;;;;;;;4946119;29;20436;-75
2024/01/31 07:15:59;;;;;;;4.97;1.30;;;;;;;;;;4943166;29;20119;-76
2024/01/31 07:18:25;;;;;;;7.88;1.63;;;;;;;;;;4934781;29;20035;-74
2024/01/31 07:20:51;;;;;;;8.75;1.45;;;;;;;;;;4938999;28;20040;-74
2024/01/31 07:23:17;;;;;;;6.20;1.52;;;;;;;;;;4932468;29;20044;-75
2024/01/31 07:25:43;;;;;;;5.03;1.50;;;;;;;;;;4944047;29;20035;-73
2024/01/31 07:28:10;;;;;;;8.80;1.98;;;;;;;;;;4932383;29;20028;-73
2024/01/31 07:30:36;;;;;;;9.82;1.63;;;;;;;;;;4944854;29;20035;-76
2024/01/31 07:33:02;;;;;;;7.30;1.45;;;;;;;;;;4948935;28;20587;-75
2024/01/31 07:35:28;;;;;;;10.10;2.15;;;;;;;;;;4950763;29;20066;-75
2024/01/31 07:37:54;;;;;;;6.68;1.63;;;;;;;;;;4944594;29;20122;-74
2024/01/31 07:40:20;;;;;;;4.82;1.80;;;;;;;;;;4935169;29;20127;-76
2024/01/31 07:42:46;;;;;;;9.52;2.20;;;;;;;;;;4938353;28;20493;-75
2024/01/31 07:45:12;;;;;;;7.30;1.35;;;;;;;;;;4932405;29;20396;-74
2024/01/31 07:47:39;;;;;;;4.25;1.52;;;;;;;;;;4949603;29;20038;-75
2024/01/31 07:50:06;;;;;;;5.55;1.70;;;;;;;;;;4946969;29;20043;-76
2024/01/31 07:52:32;;;;;;;5.60;2.03;;;;;;;;;;4934263;29;20051;-75
2024/01/31 07:54:58;;;;;;;9.18;2.58;;;;;;;;;;4949370;28;20074;-74
2024/01/31 07:57:24;;;;;;;6.05;3.00;;;;;;;;;;4939343;29;20054;-75
2024/01/31 07:59:50;;;;;;;6.25;3.20;;;;;;;;;;4931963;29;20034;-75
2024/01/31 08:02:16;;;;;;;9.02;2.55;;;;;;;;;;4943656;29;20040;-75
2024/01/31 08:04:42;;;;;;;10.00;2.85;;;;;;;;;;4935336;29;20034;-74
2024/01/31 08:07:12;;;;;;;10.77;2.78;;;;;;;;;;4934661;29;20035;-74
2024/01/31 08:09:41;;;;;;;2.95;2.15;;;;;;;;;;4950430;29;20023;-75
2024/01/31 08:12:08;;;;;;;7.47;3.10;;;;;;;;;;4941922;29;20055;-74
2024/01/31 08:14:34;;;;;;;8.30;3.55;;;;;;;;;;4931918;29;20059;-75
2024/01/31 08:17:00;;;;;;;8.18;3.00;;;;;;;;;;4942405;28;20019;-75
2024/01/31 08:19:26;;;;;;;21.95;7.82;;;;;;;;;;4939473;29;20059;-75
2024/01/31 08:21:52;;;;;;;7.22;4.65;;;;;;;;;;4936074;29;20519;-75
2024/01/31 08:24:18;;;;;;;7.40;3.72;;;;;;;;;;4945016;29;20034;-74
2024/01/31 08:26:44;;;;;;;3.90;3.45;;;;;;;;;;4948163;29;20047;-74
2024/01/31 08:29:11;;;;;;;7.35;4.18;;;;;;;;;;4950369;29;20093;-75
2024/01/31 08:31:37;;;;;;;8.63;3.50;;;;;;;;;;4939559;29;20498;-74
2024/01/31 08:34:03;;;;;;;7.22;3.42;;;;;;;;;;4944703;29;20698;-74
2024/01/31 08:36:29;;;;;;;8.00;4.50;;;;;;;;;;4941867;29;20505;-75
2024/01/31 08:38:55;;;;;;;10.63;4.05;;;;;;;;;;4934389;28;20036;-75
2024/01/31 08:41:21;;;;;;;9.32;4.28;;;;;;;;;;4936274;29;20054;-74
2024/01/31 08:43:47;;;;;;;6.95;3.90;;;;;;;;;;4945363;29;20053;-75
2024/01/31 08:46:13;;;;;;;8.20;3.95;;;;;;;;;;4944990;29;20027;-75
2024/01/31 08:48:40;;;;;;;8.80;5.78;;;;;;;;;;4935797;29;20032;-76
2024/01/31 08:51:07;;;;;;;13.20;4.90;;;;;;;;;;4945310;29;20035;-75
2024/01/31 08:53:33;;;;;;;7.25;4.00;;;;;;;;;;4944428;29;20032;-74
2024/01/31 08:55:59;;;;;;;5.97;4.88;;;;;;;;;;4944005;29;20035;-74
2024/01/31 08:58:25;;;;;;;9.82;5.82;;;;;;;;;;4944021;29;20046;-74
2024/01/31 09:00:51;;;;;;;10.90;5.45;;;;;;;;;;4944918;29;20038;-75
2024/01/31 09:03:18;;;;;;;8.10;5.65;;;;;;;;;;4944727;29;20111;-74
2024/01/31 09:05:44;;;;;;;7.63;5.95;;;;;;;;;;4934050;29;20044;-74
2024/01/31 09:08:10;;;;;;;8.88;6.25;;;;;;;;;;4928838;29;20031;-75
2024/01/31 09:10:36;;;;;;;9.07;5.82;;;;;;;;;;4940594;29;20047;-75
2024/01/31 09:13:02;;;;;;;7.78;6.00;;;;;;;;;;4941589;29;20050;-74
2024/01/31 09:15:28;;;;;;;8.57;6.45;;;;;;;;;;4943248;29;20035;-75
2024/01/31 09:17:54;;;;;;;11.00;6.30;;;;;;;;;;4941452;29;20646;-74
2024/01/31 09:20:20;;;;;;;8.13;5.88;;;;;;;;;;4943364;29;20027;-75
2024/01/31 09:22:46;;;;;;;8.43;6.57;;;;;;;;;;4932611;28;20036;-74
2024/01/31 09:25:15;;;;;;;8.35;6.30;;;;;;;;;;4928459;29;20036;-74
2024/01/31 09:27:41;;;;;;;14.30;9.35;;;;;;;;;;4950190;29;20130;-78
2024/01/31 09:30:07;;;;;;;12.23;8.70;;;;;;;;;;4944146;29;20428;-74
2024/01/31 09:32:34;;;;;;;10.90;6.50;;;;;;;;;;4946367;28;20087;-73
2024/01/31 09:35:00;;;;;;;8.20;6.35;;;;;;;;;;4939827;28;20489;-74
2024/01/31 09:37:26;;;;;;;10.15;7.45;;;;;;;;;;4938069;29;20031;-76
2024/01/31 09:39:54;;;;;;;8.93;7.20;;;;;;;;;;4932116;29;20028;-75
2024/01/31 09:42:20;;;;;;;8.25;6.63;;;;;;;;;;4934047;29;20043;-74
2024/01/31 09:44:47;;;;;;;8.30;6.00;;;;;;;;;;4948351;28;20500;-73
2024/01/31 09:47:13;;;;;;;10.25;7.05;;;;;;;;;;4949115;29;20643;-74
2024/01/31 09:49:39;;;;;;;9.80;7.13;;;;;;;;;;4943868;29;20031;-74
2024/01/31 09:52:06;;;;;;;9.27;6.75;;;;;;;;;;4932964;29;20072;-74
2024/01/31 09:54:32;;;;;;;9.93;7.00;;;;;;;;;;4945426;29;20038;-73
2024/01/31 09:56:58;;;;;;;9.98;6.80;;;;;;;;;;4946429;29;20039;-74
2024/01/31 09:59:25;;;;;;;8.48;6.50;;;;;;;;;;4948388;29;20474;-74
2024/01/31 10:01:52;;;;;;;7.60;6.70;;;;;;;;;;4944263;29;20027;-74
2024/01/31 10:04:19;;;;;;;8.68;6.07;;;;;;;;;;4919468;29;20031;-74
2024/01/31 10:06:45;;;;;;;10.27;6.40;;;;;;;;;;4944023;28;20028;-75
2024/01/31 10:09:11;;;;;;;7.32;5.25;;;;;;;;;;4949251;29;20086;-74
2024/01/31 10:11:37;;;;;;;8.00;6.50;;;;;;;;;;4949240;29;20134;-75
2024/01/31 10:14:03;;;;;;;8.43;5.63;;;;;;;;;;4943532;29;20035;-74
2024/01/31 10:16:30;;;;;;;8.73;6.07;;;;;;;;;;4941900;29;20057;-74
2024/01/31 10:18:56;;;;;;;66.70;38.85;;;;;;;;;;4937098;29;20517;-74
2024/01/31 10:21:22;;;;;;;14.50;8.35;;;;;;;;;;4936725;29;20062;-75
2024/01/31 10:24:02;;;;;;;7.93;5.88;;;;;;;;;;4943804;29;20106;-74
2024/01/31 10:26:29;;;;;;;6.32;5.13;;;;;;;;;;4936719;29;20119;-74
2024/01/31 10:28:56;;;;;;;6.57;5.85;;;;;;;;;;4943036;28;20098;-75
2024/01/31 10:31:22;;;;;;;7.95;5.57;;;;;;;;;;4945126;29;20035;-75
2024/01/31 10:33:49;;;;;;;7.30;5.85;;;;;;;;;;4949565;29;20086;-74
2024/01/31 10:36:17;;;;;;;6.40;5.68;;;;;;;;;;4934431;29;20038;-74
2024/01/31 10:38:43;;;;;;;8.82;5.13;;;;;;;;;;4918357;29;20397;-75
2024/01/31 10:41:12;;;;;;;6.40;5.13;;;;;;;;;;4941190;29;20039;-75
2024/01/31 10:43:41;;;;;;;7.75;5.70;;;;;;;;;;4941463;29;20035;-75
2024/01/31 10:46:07;;;;;;;6.35;5.10;;;;;;;;;;4947095;29;20457;-74
2024/01/31 10:48:33;;;;;;;7.55;5.10;;;;;;;;;;4935963;29;20019;-75
2024/01/31 10:51:00;;;;;;;7.03;5.40;;;;;;;;;;4938500;28;20083;-73
2024/01/31 10:53:26;;;;;;;6.35;4.35;;;;;;;;;;4946522;29;20035;-74
2024/01/31 10:55:53;;;;;;;7.38;4.63;;;;;;;;;;4928276;28;20035;-73
2024/01/31 10:58:22;;;;;;;5.65;4.38;;;;;;;;;;4938233;29;20036;-73
2024/01/31 11:00:48;;;;;;;6.43;4.80;;;;;;;;;;4945424;28;20484;-74
2024/01/31 11:03:15;;;;;;;6.07;4.57;;;;;;;;;;4934253;29;20070;-73
2024/01/31 11:05:42;;;;;;;6.78;4.60;;;;;;;;;;4942216;29;20027;-74
2024/01/31 11:08:18;;;;;;;4.53;3.95;;;;;;;;;;4940107;29;20054;-74
2024/01/31 11:10:44;;;;;;;6.65;4.25;;;;;;;;;;4944851;29;20481;-73
2024/01/31 11:13:10;;;;;;;4.68;3.67;;;;;;;;;;4938255;28;20381;-74
2024/01/31 11:15:36;;;;;;;6.60;3.85;;;;;;;;;;4943762;29;20446;-74
2024/01/31 11:18:08;;;;;;;5.78;4.00;;;;;;;;;;4946798;29;20035;-74
2024/01/31 11:20:36;;;;;;;6.50;3.73;;;;;;;;;;4940427;29;20054;-75
2024/01/31 11:23:05;;;;;;;6.70;3.70;;;;;;;;;;4936702;28;20286;-74
2024/01/31 11:25:37;;;;;;;6.15;3.72;;;;;;;;;;4924951;29;20037;-74
2024/01/31 11:28:07;;;;;;;5.47;3.83;;;;;;;;;;4947458;29;20501;-79
2024/01/31 11:30:33;;;;;;;6.57;4.28;;;;;;;;;;4947429;29;20027;-74
2024/01/31 11:33:03;;;;;;;7.28;4.00;;;;;;;;;;4941469;29;20027;-75
2024/01/31 11:35:29;;;;;;;6.40;4.00;;;;;;;;;;4926439;29;20263;-75
2024/01/31 11:37:57;;;;;;;9.80;6.05;;;;;;;;;;4947049;28;20024;-76
2024/01/31 11:40:23;;;;;;;8.32;6.60;;;;;;;;;;4944874;29;20035;-77
2024/01/31 11:42:49;;;;;;;8.48;4.35;;;;;;;;;;4951267;29;20050;-75
2024/01/31 11:45:15;;;;;;;6.57;4.00;;;;;;;;;;4940930;29;20074;-74
2024/01/31 11:47:42;;;;;;;4.93;4.25;;;;;;;;;;4943220;29;20142;-74
2024/01/31 11:50:08;;;;;;;5.65;4.20;;;;;;;;;;4942697;29;20122;-73
2024/01/31 11:52:34;;;;;;;6.68;4.85;;;;;;;;;;4943119;29;20054;-73
2024/01/31 11:55:00;;;;;;;6.68;4.30;;;;;;;;;;4948491;29;20047;-74
2024/01/31 11:57:26;;;;;;;8.10;4.47;;;;;;;;;;4930880;29;20089;-74
2024/01/31 11:59:53;;;;;;;5.53;4.53;;;;;;;;;;4947076;29;20031;-75
2024/01/31 12:02:19;;;;;;;6.32;4.65;;;;;;;;;;4940992;29;20050;-75
2024/01/31 12:04:55;;;;;;;5.50;4.57;;;;;;;;;;4946791;29;20036;-75
2024/01/31 12:07:21;;;;;;;8.25;4.47;;;;;;;;;;4938014;29;20046;-75
2024/01/31 12:09:48;;;;;;;6.88;3.55;;;;;;;;;;4941655;29;20039;-81
2024/01/31 12:12:14;;;;;;;6.50;4.75;;;;;;;;;;4941253;29;20062;-77
2024/01/31 12:14:40;;;;;;;11.75;6.72;;;;;;;;;;4941188;29;20035;-79
2024/01/31 12:17:25;;;;;;;6.68;4.38;;;;;;;;;;4946216;29;20031;-73
2024/01/31 12:20:03;;;;;;;4.65;3.78;;;;;;;;;;4942783;29;20032;-75
2024/01/31 12:22:29;;;;;;;6.82;4.22;;;;;;;;;;4934177;29;20382;-74
2024/01/31 12:24:55;;;;;;;4.35;3.33;;;;;;;;;;4941392;29;20552;-74
2024/01/31 12:27:21;;;;;;;5.40;3.50;;;;;;;;;;4939216;29;20070;-74
2024/01/31 12:29:48;;;;;;;4.68;3.70;;;;;;;;;;4937583;28;20046;-74
2024/01/31 12:32:14;;;;;;;7.05;4.00;;;;;;;;;;4941134;29;20058;-74
2024/01/31 12:34:40;;;;;;;6.55;3.70;;;;;;;;;;4937184;29;20054;-74
2024/01/31 12:37:06;;;;;;;4.65;3.95;;;;;;;;;;4937428;29;20054;-74
2024/01/31 12:39:35;;;;;;;8.07;4.15;;;;;;;;;;4941046;28;20066;-75
2024/01/31 12:42:01;;;;;;;7.00;4.53;;;;;;;;;;4927481;29;20042;-75
2024/01/31 12:44:27;;;;;;;7.07;3.85;;;;;;;;;;4941153;29;20062;-75
2024/01/31 12:46:53;;;;;;;8.38;4.78;;;;;;;;;;4927459;29;20035;-77
2024/01/31 12:49:19;;;;;;;7.18;4.05;;;;;;;;;;4938667;29;20397;-75
2024/01/31 12:51:45;;;;;;;8.20;4.40;;;;;;;;;;4938806;28;20454;-75
2024/01/31 12:54:11;;;;;;;5.18;4.07;;;;;;;;;;4937586;28;20058;-74
2024/01/31 12:56:38;;;;;;;6.68;4.95;;;;;;;;;;4936186;29;20038;-75
2024/01/31 12:59:04;;;;;;;6.82;4.47;;;;;;;;;;4941390;28;20505;-74
2024/01/31 13:01:31;;;;;;;7.25;4.85;;;;;;;;;;4942210;29;20560;-76
2024/01/31 13:03:57;;;;;;;11.30;4.95;;;;;;;;;;4944354;29;20544;-76
2024/01/31 13:06:23;;;;;;;20.10;10.65;;;;;;;;;;4945763;29;20500;-75
2024/01/31 13:08:49;;;;;;;7.88;5.47;;;;;;;;;;4941073;29;20050;-82
2024/01/31 13:11:15;;;;;;;6.93;5.05;;;;;;;;;;4943784;29;20047;-75
2024/01/31 13:13:43;;;;;;;6.57;4.95;;;;;;;;;;4940909;28;20023;-75
2024/01/31 13:16:10;;;;;;;6.40;4.93;;;;;;;;;;4922528;29;20054;-74
2024/01/31 13:18:36;;;;;;;7.20;5.63;;;;;;;;;;4946584;29;20496;-75
2024/01/31 13:21:04;;;;;;;7.57;5.20;;;;;;;;;;4948026;29;20031;-75
2024/01/31 13:23:30;;;;;;;7.13;5.00;;;;;;;;;;4948964;28;20126;-75
2024/01/31 13:25:56;;;;;;;7.88;5.40;;;;;;;;;;4942537;29;20063;-76
2024/01/31 13:28:22;;;;;;;7.85;4.78;;;;;;;;;;4940210;29;20043;-76
2024/01/31 13:30:48;;;;;;;6.47;4.82;;;;;;;;;;4945293;29;20058;-74
2024/01/31 13:33:14;;;;;;;7.43;4.90;;;;;;;;;;4951502;29;20031;-74
2024/01/31 13:35:40;;;;;;;9.18;5.45;;;;;;;;;;4929877;29;20040;-74
2024/01/31 13:38:06;;;;;;;8.40;6.03;;;;;;;;;;4939641;29;20023;-74
2024/01/31 13:40:32;;;;;;;9.13;5.60;;;;;;;;;;4940452;29;20110;-75
2024/01/31 13:42:58;;;;;;;10.05;6.80;;;;;;;;;;4937614;29;20035;-74
2024/01/31 13:45:24;;;;;;;7.78;5.88;;;;;;;;;;4945045;28;20031;-75
2024/01/31 13:47:50;;;;;;;8.38;6.13;;;;;;;;;;4952380;29;20441;-75
2024/01/31 13:50:16;;;;;;;8.63;6.13;;;;;;;;;;4952977;29;20035;-75
2024/01/31 13:52:42;;;;;;;13.02;6.85;;;;;;;;;;4943634;29;20043;-74
2024/01/31 13:55:09;;;;;;;9.93;6.30;;;;;;;;;;4950016;29;20381;-74
2024/01/31 13:57:35;;;;;;;9.90;6.28;;;;;;;;;;4950866;28;20033;-74
2024/01/31 14:00:04;;;;;;;12.57;7.35;;;;;;;;;;4953272;29;20027;-74
2024/01/31 14:02:31;;;;;;;11.85;7.93;;;;;;;;;;4946062;28;20031;-74
2024/01/31 14:04:59;;;;;;;10.75;6.85;;;;;;;;;;4937814;29;20028;-74
2024/01/31 14:07:26;;;;;;;14.05;8.07;;;;;;;;;;4940855;29;20366;-74
2024/01/31 14:09:52;;;;;;;15.95;10.13;;;;;;;;;;4946683;29;20023;-76
2024/01/31 14:12:18;;;;;;;14.60;7.63;;;;;;;;;;4948523;29;20047;-74
2024/01/31 14:14:44;;;;;;;12.98;8.15;;;;;;;;;;4947537;29;20027;-75
2024/01/31 14:17:10;;;;;;;13.07;8.60;;;;;;;;;;4938841;28;20063;-75
2024/01/31 14:19:38;;;;;;;12.02;7.75;;;;;;;;;;4940366;29;20059;-75
2024/01/31 14:22:04;;;;;;;10.95;7.95;;;;;;;;;;4935854;29;20043;-75
2024/01/31 14:24:30;;;;;;;16.40;9.00;;;;;;;;;;4947931;29;20674;-75
2024/01/31 14:26:56;;;;;;;12.15;8.15;;;;;;;;;;4943794;29;20478;-74
2024/01/31 14:29:22;;;;;;;13.70;9.60;;;;;;;;;;4949686;29;20493;-74
2024/01/31 14:31:48;;;;;;;13.75;8.93;;;;;;;;;;4944719;29;20043;-74
2024/01/31 14:34:15;;;;;;;16.52;9.57;;;;;;;;;;4946720;29;20031;-74
2024/01/31 14:36:41;;;;;;;14.50;9.55;;;;;;;;;;4942094;29;20486;-74